Terminal Aerodrome Forecast
Issued by NWS Wilmington, OH

Current Version | Previous Version | Text Only | Print | Product List | Glossary Off
Versions: 1 2 3 4 5 6 7 8 9 10 11 12 13 14 15 16 17 18 19 20 21 22 23 24 25

000
FTUS41 KILN 161500 AAA
TAFILN
TAF AMD
KILN 161526Z 1615/1712 25014G24KT P6SM -SHRA OVC012
     FM162000 25014G22KT P6SM OVC012
     FM170600 26012KT P6SM OVC015=

USA.gov is the U.S. government's official web portal to all federal, state and local government web resources and services.